createdAt,value
2017-05-14T09:35:36.388Z,63.30
2017-05-14T09:38:04.651Z,64.20
2017-05-14T09:40:33.628Z,64.70
2017-05-14T09:43:01.852Z,65.00
2017-05-14T09:45:30.192Z,65.20
2017-05-14T09:47:59.190Z,65.70
2017-05-14T09:50:28.159Z,65.70
2017-05-14T09:52:56.456Z,66.00
2017-05-14T09:55:25.458Z,66.00
2017-05-14T09:57:53.711Z,66.50
2017-05-14T10:00:21.988Z,66.10
2017-05-14T10:02:50.217Z,66.20
2017-05-14T10:05:18.565Z,63.10
2017-05-14T10:07:46.843Z,60.60
2017-05-14T10:10:15.122Z,58.70
2017-05-14T10:12:43.391Z,58.60
2017-05-14T10:15:11.718Z,58.20
2017-05-14T10:17:39.964Z,58.40
2017-05-14T10:20:08.219Z,56.60
2017-05-14T10:22:36.511Z,56.00
2017-05-14T10:25:04.790Z,55.00
2017-05-14T10:27:33.021Z,55.60
2017-05-14T10:30:01.244Z,55.80
2017-05-14T10:32:29.495Z,56.30
2017-05-14T10:34:57.728Z,57.40
2017-05-14T10:37:26.044Z,58.50
2017-05-14T10:39:55.062Z,57.60
2017-05-14T10:42:23.313Z,56.50
2017-05-14T10:44:51.587Z,57.30
2017-05-14T10:47:20.592Z,56.50
2017-05-14T10:49:48.856Z,57.40
2017-05-14T10:52:17.853Z,57.00
2017-05-14T10:54:46.857Z,55.80
2017-05-14T10:57:15.098Z,55.60
2017-05-14T10:59:43.343Z,56.30
2017-05-14T11:02:11.702Z,55.60
2017-05-14T11:04:40.045Z,54.80
2017-05-14T11:07:09.043Z,53.60
2017-05-14T11:09:38.059Z,52.20
2017-05-14T11:12:06.304Z,52.50
2017-05-14T11:14:35.279Z,51.10
2017-05-14T11:17:03.580Z,51.20
2017-05-14T11:19:32.599Z,50.70
2017-05-14T11:22:00.844Z,50.60
2017-05-14T11:24:29.859Z,49.10
2017-05-14T11:26:58.138Z,49.50
2017-05-14T11:29:26.402Z,49.20
2017-05-14T11:31:54.650Z,48.40
2017-05-14T11:34:22.962Z,48.20
2017-05-14T11:36:51.242Z,47.50
2017-05-14T11:39:19.517Z,48.40
2017-05-14T11:41:47.799Z,47.60
2017-05-14T11:44:16.055Z,48.20
2017-05-14T11:46:45.057Z,48.80
2017-05-14T11:49:13.446Z,49.00
2017-05-14T11:51:41.705Z,48.20
2017-05-14T11:54:09.971Z,48.00
2017-05-14T11:56:39.013Z,48.40
2017-05-14T11:59:07.371Z,47.50
2017-05-14T12:01:35.620Z,47.10
2017-05-14T12:04:03.874Z,47.90
2017-05-14T12:06:32.180Z,47.40
2017-05-14T12:09:00.453Z,48.30
2017-05-14T12:11:29.452Z,49.40
2017-05-14T12:13:57.739Z,52.70
2017-05-14T12:16:25.993Z,53.40
2017-05-14T12:18:54.991Z,52.60
2017-05-14T12:21:23.280Z,53.60
2017-05-14T12:23:51.686Z,53.90
2017-05-14T12:26:20.043Z,53.00
2017-05-14T12:28:48.315Z,52.00
2017-05-14T12:31:16.553Z,50.10
2017-05-14T12:33:44.851Z,50.20
2017-05-14T12:36:13.104Z,50.00
2017-05-14T12:38:41.355Z,49.50
2017-05-14T12:41:09.697Z,49.60
2017-05-14T12:43:37.952Z,49.40
2017-05-14T12:46:06.940Z,49.90
2017-05-14T12:48:37.133Z,49.80
2017-05-14T12:51:05.440Z,49.50
2017-05-14T12:53:34.437Z,50.20
2017-05-14T12:56:03.428Z,49.80
2017-05-14T12:58:38.481Z,50.00
2017-05-14T13:01:06.760Z,49.80
2017-05-14T13:03:35.020Z,49.40
2017-05-14T13:06:03.272Z,50.00
2017-05-14T13:08:31.531Z,49.60
2017-05-14T13:10:59.843Z,49.30
2017-05-14T13:13:28.819Z,50.00
2017-05-14T13:15:57.053Z,49.80
2017-05-14T13:18:25.391Z,50.20
2017-05-14T13:20:54.384Z,50.80
2017-05-14T13:23:23.380Z,50.80
2017-05-14T13:25:52.476Z,51.10
2017-05-14T13:28:21.476Z,51.20
2017-05-14T13:30:49.744Z,52.10
2017-05-14T13:33:18.023Z,52.40
2017-05-14T13:35:46.994Z,52.90
2017-05-14T13:38:16.047Z,53.50
2017-05-14T13:40:44.384Z,52.20
2017-05-14T13:43:12.653Z,52.80
2017-05-14T13:45:41.649Z,58.70
2017-05-14T13:51:04.610Z,64.00
2017-05-14T13:53:33.628Z,66.20
2017-05-14T13:56:01.923Z,69.50
2017-05-14T13:58:40.141Z,70.50
2017-05-14T14:02:22.104Z,67.80
2017-05-14T14:04:51.090Z,70.40
2017-05-14T14:07:20.092Z,69.10
2017-05-14T14:09:48.341Z,70.10
2017-05-14T14:12:16.581Z,71.50
2017-05-14T14:14:54.586Z,69.60
2017-05-14T14:17:22.833Z,70.20
2017-05-14T14:19:51.495Z,70.20
2017-05-14T14:22:20.487Z,70.00
2017-05-14T14:24:49.593Z,68.90
2017-05-14T14:27:18.602Z,70.00
2017-05-14T14:29:46.865Z,71.10
2017-05-14T14:32:15.140Z,72.00
2017-05-14T14:34:44.120Z,73.20
2017-05-14T14:37:13.138Z,74.70
2017-05-14T14:39:41.403Z,74.60
2017-05-14T14:42:10.395Z,73.70
2017-05-14T14:44:40.316Z,69.50
2017-05-14T14:47:08.679Z,69.30
2017-05-14T14:49:38.112Z,69.30
2017-05-14T14:52:07.102Z,69.60
2017-05-14T14:54:36.082Z,69.70
2017-05-14T14:57:04.380Z,69.40
2017-05-14T14:59:33.352Z,69.10
2017-05-14T15:02:01.696Z,68.90
2017-05-14T15:04:29.929Z,69.00
2017-05-14T15:06:58.906Z,68.90
2017-05-14T15:09:27.156Z,68.80
2017-05-14T15:11:55.481Z,68.80
2017-05-14T15:14:23.748Z,68.80
2017-05-14T15:16:52.035Z,69.10
2017-05-14T15:19:20.348Z,68.80
2017-05-14T15:21:48.585Z,68.70
2017-05-14T15:24:16.847Z,69.10
2017-05-14T15:26:45.855Z,68.60
2017-05-14T15:29:14.147Z,69.00
2017-05-14T15:31:42.427Z,68.50
2017-05-14T15:34:10.699Z,68.40
2017-05-14T15:36:38.951Z,68.40
2017-05-14T15:39:07.959Z,68.40
2017-05-14T15:41:36.191Z,68.40
2017-05-14T15:44:04.496Z,68.30
2017-05-14T15:46:33.475Z,68.30
2017-05-14T15:49:01.784Z,68.20
2017-05-14T15:51:30.069Z,68.20
2017-05-14T15:53:58.300Z,68.20
2017-05-14T15:56:26.642Z,68.10
2017-05-14T15:58:54.888Z,68.10
2017-05-14T16:01:23.125Z,68.00
2017-05-14T16:03:51.348Z,68.10
2017-05-14T16:06:19.646Z,68.10
2017-05-14T16:08:47.895Z,68.10
2017-05-14T16:11:16.171Z,68.00
2017-05-14T16:13:44.450Z,68.10
2017-05-14T16:16:12.710Z,68.10
2017-05-14T16:18:41.695Z,68.00
2017-05-14T16:21:10.690Z,68.00
2017-05-14T16:23:39.689Z,68.00
2017-05-14T16:26:08.683Z,67.90
2017-05-14T16:28:37.672Z,67.90
2017-05-14T16:31:06.679Z,67.80
2017-05-14T16:33:34.913Z,67.80
2017-05-14T16:38:32.013Z,67.80
2017-05-14T16:41:00.289Z,68.10
2017-05-14T16:43:28.565Z,67.60
2017-05-14T16:45:56.843Z,68.20
2017-05-14T16:48:25.111Z,67.60
2017-05-14T16:50:54.220Z,67.60
2017-05-14T16:53:22.486Z,67.60
2017-05-14T16:55:51.464Z,67.60
2017-05-14T16:58:20.464Z,67.60
2017-05-14T17:00:49.466Z,67.60
2017-05-14T17:03:18.472Z,67.50
2017-05-14T17:05:46.715Z,67.50
2017-05-14T17:08:15.017Z,67.50
2017-05-14T17:10:43.301Z,67.50
2017-05-14T17:13:11.563Z,67.50
2017-05-14T17:15:40.571Z,67.40
2017-05-14T17:18:08.936Z,67.50
2017-05-14T17:20:37.933Z,67.40
2017-05-14T17:23:06.907Z,67.40
2017-05-14T17:25:35.908Z,67.60
2017-05-14T17:28:05.003Z,67.20
2017-05-14T17:30:33.972Z,67.20
2017-05-14T17:33:02.201Z,67.30
2017-05-14T17:35:31.277Z,67.20
2017-05-14T17:37:59.573Z,67.40
2017-05-14T17:40:27.829Z,67.40
2017-05-14T17:42:56.097Z,67.30
2017-05-14T17:45:25.068Z,67.30
2017-05-14T17:47:53.316Z,67.30
2017-05-14T17:50:21.648Z,67.30
2017-05-14T17:52:50.647Z,67.40
2017-05-14T17:55:18.885Z,67.50
2017-05-14T17:57:47.190Z,67.50
2017-05-14T18:03:10.512Z,67.60
2017-05-14T18:05:38.757Z,67.50
2017-05-14T18:08:07.039Z,68.00
2017-05-14T18:10:35.269Z,67.60
2017-05-14T18:13:03.576Z,67.60
2017-05-14T18:15:32.560Z,67.70
2017-05-14T18:18:01.556Z,67.70
2017-05-14T18:20:30.572Z,67.70
2017-05-14T18:22:58.835Z,67.80
2017-05-14T18:25:27.084Z,67.80
2017-05-14T18:27:55.338Z,67.80
2017-05-14T18:30:23.668Z,67.80
2017-05-14T18:32:51.927Z,67.70
2017-05-14T18:35:21.251Z,67.80
2017-05-14T18:37:49.540Z,67.80
2017-05-14T18:40:17.786Z,67.90
2017-05-14T18:42:46.768Z,67.90
2017-05-14T18:45:15.065Z,67.80
2017-05-14T18:47:43.303Z,68.20
2017-05-14T18:50:11.624Z,68.00
2017-05-14T18:52:39.881Z,68.00
2017-05-14T18:55:08.166Z,68.00
2017-05-14T18:57:36.435Z,68.00
2017-05-14T19:00:05.438Z,68.00
2017-05-14T19:02:33.705Z,68.40
2017-05-14T19:05:02.691Z,68.10
2017-05-14T19:07:31.700Z,68.10
2017-05-14T19:09:59.978Z,68.20
2017-05-14T19:12:28.952Z,68.20
2017-05-14T19:14:57.932Z,68.20
2017-05-14T19:17:26.211Z,68.20
2017-05-14T19:19:54.528Z,68.20
2017-05-14T19:22:22.787Z,68.30
2017-05-14T19:24:51.025Z,68.70
2017-05-14T19:27:19.332Z,68.30
2017-05-14T19:29:48.462Z,68.30
2017-05-14T19:32:16.747Z,68.30
2017-05-14T19:34:45.102Z,68.30
2017-05-14T19:37:13.391Z,68.60
2017-05-14T19:39:41.629Z,68.30
2017-05-14T19:42:09.920Z,68.30
2017-05-14T19:44:38.921Z,68.20
2017-05-14T19:47:07.161Z,68.20
2017-05-14T19:49:35.480Z,68.20
2017-05-14T19:52:03.745Z,68.30
2017-05-14T19:54:32.741Z,68.30
2017-05-14T19:57:01.014Z,68.30
2017-05-14T19:59:29.992Z,68.30
2017-05-14T20:01:58.989Z,68.30
2017-05-14T20:04:27.972Z,68.30
2017-05-14T20:06:57.000Z,68.30
2017-05-14T20:09:25.237Z,68.30
2017-05-14T20:11:53.543Z,68.30
2017-05-14T20:14:21.847Z,68.30
2017-05-14T20:16:50.156Z,68.30
2017-05-14T20:19:18.386Z,68.30
2017-05-14T20:21:49.816Z,68.30
2017-05-14T20:24:18.804Z,68.30
2017-05-14T20:26:47.818Z,68.20
2017-05-14T20:29:16.048Z,68.30
2017-05-14T20:31:44.295Z,68.30
2017-05-14T20:34:12.629Z,68.20
2017-05-14T20:36:41.632Z,68.30
2017-05-14T20:39:10.937Z,68.40
2017-05-14T20:41:39.211Z,68.50
2017-05-14T20:44:07.460Z,68.30
2017-05-14T20:46:35.754Z,68.20
2017-05-14T20:49:04.725Z,68.30
2017-05-14T20:51:32.961Z,68.20
2017-05-14T20:54:01.299Z,68.20
2017-05-14T20:56:30.296Z,68.20
2017-05-14T20:58:59.304Z,68.20
2017-05-14T21:01:27.561Z,68.20
2017-05-14T21:03:56.556Z,68.20
2017-05-14T21:06:25.550Z,68.20
2017-05-14T21:08:57.469Z,68.20
2017-05-14T21:11:25.779Z,68.20
2017-05-14T21:13:54.797Z,68.20
2017-05-14T21:16:23.044Z,68.30
2017-05-14T21:21:20.225Z,68.30
2017-05-14T21:23:49.239Z,68.20
2017-05-14T21:26:17.512Z,68.30
2017-05-14T21:28:45.788Z,68.30
2017-05-14T21:31:14.047Z,68.30
2017-05-14T21:33:43.062Z,68.20
2017-05-14T21:36:11.328Z,68.20
2017-05-14T21:38:39.738Z,68.20
2017-05-14T21:41:07.970Z,68.20
2017-05-14T21:43:36.977Z,68.20
2017-05-14T21:46:05.215Z,68.20
2017-05-14T21:48:33.464Z,68.20
2017-05-14T21:51:01.793Z,68.20
2017-05-14T21:53:30.784Z,68.20
2017-05-14T21:55:59.799Z,68.20
2017-05-14T21:58:28.043Z,68.20
2017-05-14T22:00:57.034Z,68.30
2017-05-14T22:03:26.052Z,68.30
2017-05-14T22:05:54.295Z,68.70
2017-05-14T22:08:22.657Z,68.30
2017-05-14T22:10:50.978Z,68.30
2017-05-14T22:13:19.975Z,68.30
2017-05-14T22:15:48.223Z,68.30
2017-05-14T22:18:16.540Z,68.20
2017-05-14T22:20:44.772Z,68.30
2017-05-14T22:23:13.032Z,68.20
2017-05-14T22:25:41.359Z,68.30
2017-05-14T22:28:09.615Z,68.30
2017-05-14T22:30:38.601Z,68.30
2017-05-14T22:33:06.896Z,68.20
2017-05-14T22:35:35.879Z,68.30
2017-05-14T22:38:04.921Z,68.30
2017-05-14T22:43:02.092Z,68.30
2017-05-14T22:45:30.315Z,68.30
2017-05-14T22:47:59.323Z,68.30
2017-05-14T22:50:34.296Z,68.70
2017-05-14T22:53:02.637Z,68.30
2017-05-14T22:55:30.907Z,68.30
2017-05-14T22:57:59.919Z,68.30
2017-05-14T23:00:28.161Z,68.30
2017-05-14T23:02:57.147Z,68.60
2017-05-14T23:05:25.397Z,68.40
2017-05-14T23:07:53.720Z,68.30
2017-05-14T23:10:22.728Z,68.30
2017-05-14T23:12:50.973Z,68.30
2017-05-14T23:15:19.280Z,68.30
2017-05-14T23:17:47.537Z,68.30
2017-05-14T23:20:16.549Z,68.30
2017-05-14T23:22:44.782Z,68.30
2017-05-14T23:25:13.084Z,68.30
2017-05-14T23:27:42.072Z,68.30
2017-05-14T23:30:11.049Z,68.40
2017-05-14T23:32:39.350Z,68.40
2017-05-14T23:35:08.909Z,68.30
2017-05-14T23:37:37.340Z,68.40
2017-05-14T23:40:05.580Z,68.30
2017-05-14T23:42:33.888Z,68.40
2017-05-14T23:45:02.900Z,68.40
2017-05-14T23:47:31.166Z,68.40
2017-05-14T23:49:59.432Z,68.60
2017-05-14T23:52:28.436Z,68.20
2017-05-14T23:54:56.681Z,68.30
2017-05-14T23:57:24.977Z,68.30
2017-05-14T23:59:53.961Z,68.20
